Главная страница
METAR-TAF:

METAR-TAF

Аэропорты :

Нальчик, Россия

широта: 43-30-46N, долгота: 043-38-12E, высота над уровнем моря: 445 м

Текущие метеонаблюдения

Эта сводка был подготовлена 50 минут назад, в 23:00 UTC
Ветер 2 Узел от восточно-северо-восточный
Температура -2°C
Влажность 93%
Давление 1025 hPa
Видимость 10 км и более
Сплошная облачность на высоте 1300 фута

METAR: URMN 182300Z 07001MPS 9999 OVC013 M02/M03 Q1025 R24/////// NOSIG RMK MT OBSC QFE732

Время: 02:50 (23:50 UTC)

Прогноз

Эта сводка был подготовлена 50 минут назад, в 23:00 UTC
Прогноз действительный с 19-го 00 UTC до 19-го 09 UTC
Ветер 6 Узел от северо-восточный с порывами до 16 Узел
Видимость: 3100 м
Сплошная облачность на высоте 1100 фута
дымка
временами
С 19-го 00 UTC до 19-го 06 UTC
Видимость: 0500 м
Сплошная облачность на высоте 200 фута
переохлажденная морось, переохлажденный туман

TAF: URMN 182300Z 1900/1909 04003G08MPS 3100 BR OVC011 TEMPO 1900/1906 0500 FZDZ FZFG OVC002

Метеонаблюдения и прогнозы для более 4000 аэропортов (сводки METAR и TAF).

Имеющиеся станции представлены на карте желтыми и красными точками.

Чтобы увидеть название станции, наведите на нее мышь.

Затем щелкните, чтобы увидеть метеонаблюдения и метеопрогнозы.

Управление картой: чтобы увеличить масштаб, щелкните зеленые кнопки с черным крестиком; чтобы уменьшить масштаб, щелкните зеленую кнопку с тире; для просмотра соседних карт щелкайте зеленые стрелки.


METAR-TAF: